sensor_id;sensor_type;location;lat;lon;timestamp;pressure;altitude;pressure_sealevel;temperature;humidity
72336;BME280;65062;48.446;8.834;2023-04-01T00:02:12;96277.03;;;7.79;83.10
72336;BME280;65062;48.446;8.834;2023-04-01T00:05:12;96279.66;;;7.92;81.62
72336;BME280;65062;48.446;8.834;2023-04-01T00:08:13;96281.22;;;7.80;82.51
72336;BME280;65062;48.446;8.834;2023-04-01T00:11:15;96271.03;;;7.91;80.80
72336;BME280;65062;48.446;8.834;2023-04-01T00:14:16;96268.03;;;7.94;81.99
72336;BME280;65062;48.446;8.834;2023-04-01T00:17:16;96272.25;;;7.95;80.93
72336;BME280;65062;48.446;8.834;2023-04-01T00:20:17;96269.63;;;8.02;80.70
72336;BME280;65062;48.446;8.834;2023-04-01T00:23:18;96265.22;;;7.96;80.16
72336;BME280;65062;48.446;8.834;2023-04-01T00:26:20;96263.44;;;8.03;80.96
72336;BME280;65062;48.446;8.834;2023-04-01T00:29:21;96264.00;;;7.92;81.05
72336;BME280;65062;48.446;8.834;2023-04-01T00:32:24;96268.63;;;7.90;80.87
72336;BME280;65062;48.446;8.834;2023-04-01T00:35:26;96269.22;;;7.92;80.39
72336;BME280;65062;48.446;8.834;2023-04-01T00:38:26;96268.66;;;8.03;79.60
72336;BME280;65062;48.446;8.834;2023-04-01T00:41:26;96262.63;;;8.02;78.02
72336;BME280;65062;48.446;8.834;2023-04-01T00:44:32;96255.63;;;8.03;79.51
72336;BME280;65062;48.446;8.834;2023-04-01T00:47:34;96254.59;;;7.97;80.23
72336;BME280;65062;48.446;8.834;2023-04-01T00:50:35;96254.81;;;7.89;79.70
72336;BME280;65062;48.446;8.834;2023-04-01T00:53:40;96255.78;;;7.82;79.85
72336;BME280;65062;48.446;8.834;2023-04-01T00:56:46;96263.59;;;7.75;79.60
72336;BME280;65062;48.446;8.834;2023-04-01T00:59:52;96261.19;;;7.74;79.15
72336;BME280;65062;48.446;8.834;2023-04-01T01:02:53;96255.56;;;7.70;79.95
72336;BME280;65062;48.446;8.834;2023-04-01T01:09:31;96266.75;;;7.58;78.49
72336;BME280;65062;48.446;8.834;2023-04-01T01:13:05;96250.91;;;7.46;79.61
72336;BME280;65062;48.446;8.834;2023-04-01T01:16:10;96268.50;;;7.44;80.74
72336;BME280;65062;48.446;8.834;2023-04-01T01:22:53;96261.34;;;7.53;80.12
72336;BME280;65062;48.446;8.834;2023-04-01T01:29:45;96269.75;;;7.55;77.93
72336;BME280;65062;48.446;8.834;2023-04-01T01:36:13;96275.19;;;7.60;77.99
72336;BME280;65062;48.446;8.834;2023-04-01T01:39:14;96272.75;;;7.52;78.08
72336;BME280;65062;48.446;8.834;2023-04-01T01:42:18;96277.56;;;7.48;78.56
72336;BME280;65062;48.446;8.834;2023-04-01T01:45:21;96275.72;;;7.49;78.61
72336;BME280;65062;48.446;8.834;2023-04-01T01:48:24;96268.53;;;7.51;78.12
72336;BME280;65062;48.446;8.834;2023-04-01T01:51:27;96267.69;;;7.37;78.87
72336;BME280;65062;48.446;8.834;2023-04-01T01:54:28;96268.06;;;7.34;80.21
72336;BME280;65062;48.446;8.834;2023-04-01T01:57:32;96271.28;;;7.36;79.84
72336;BME280;65062;48.446;8.834;2023-04-01T02:00:33;96271.53;;;7.48;79.80
72336;BME280;65062;48.446;8.834;2023-04-01T02:03:37;96281.53;;;7.44;79.92
72336;BME280;65062;48.446;8.834;2023-04-01T02:06:44;96273.75;;;7.51;79.41
72336;BME280;65062;48.446;8.834;2023-04-01T02:09:47;96280.16;;;7.55;80.23
72336;BME280;65062;48.446;8.834;2023-04-01T02:12:49;96277.78;;;7.60;78.06
72336;BME280;65062;48.446;8.834;2023-04-01T02:15:55;96282.78;;;7.61;78.35
72336;BME280;65062;48.446;8.834;2023-04-01T02:18:58;96290.00;;;7.66;78.62
72336;BME280;65062;48.446;8.834;2023-04-01T02:22:02;96284.97;;;7.58;79.50
72336;BME280;65062;48.446;8.834;2023-04-01T02:25:27;96290.75;;;7.53;80.83
72336;BME280;65062;48.446;8.834;2023-04-01T02:28:30;96291.97;;;7.51;78.95
72336;BME280;65062;48.446;8.834;2023-04-01T02:31:31;96302.38;;;7.51;79.97
72336;BME280;65062;48.446;8.834;2023-04-01T02:34:33;96298.34;;;7.42;78.73
72336;BME280;65062;48.446;8.834;2023-04-01T02:37:33;96291.94;;;7.38;79.31
72336;BME280;65062;48.446;8.834;2023-04-01T02:40:51;96297.50;;;7.35;79.08
72336;BME280;65062;48.446;8.834;2023-04-01T02:43:56;96287.06;;;7.28;78.11
72336;BME280;65062;48.446;8.834;2023-04-01T02:46:58;96286.81;;;7.17;78.65
72336;BME280;65062;48.446;8.834;2023-04-01T02:49:58;96281.50;;;6.97;79.33
72336;BME280;65062;48.446;8.834;2023-04-01T02:52:59;96277.88;;;6.92;79.84
72336;BME280;65062;48.446;8.834;2023-04-01T02:55:59;96275.03;;;6.80;80.08
72336;BME280;65062;48.446;8.834;2023-04-01T02:59:00;96271.78;;;6.72;80.46
72336;BME280;65062;48.446;8.834;2023-04-01T03:02:00;96288.97;;;6.73;79.91
72336;BME280;65062;48.446;8.834;2023-04-01T03:05:00;96285.75;;;6.71;80.43
72336;BME280;65062;48.446;8.834;2023-04-01T03:08:02;96281.16;;;6.66;80.82
72336;BME280;65062;48.446;8.834;2023-04-01T03:11:02;96273.06;;;6.55;81.71
72336;BME280;65062;48.446;8.834;2023-04-01T03:14:03;96268.44;;;6.50;80.08
72336;BME280;65062;48.446;8.834;2023-04-01T03:17:03;96273.22;;;6.47;81.12
72336;BME280;65062;48.446;8.834;2023-04-01T03:20:06;96264.78;;;6.38;81.96
72336;BME280;65062;48.446;8.834;2023-04-01T03:23:08;96266.81;;;6.43;81.21
72336;BME280;65062;48.446;8.834;2023-04-01T03:26:09;96261.06;;;6.26;82.87
72336;BME280;65062;48.446;8.834;2023-04-01T03:29:09;96275.72;;;6.33;82.16
72336;BME280;65062;48.446;8.834;2023-04-01T03:32:10;96281.22;;;6.52;81.35
72336;BME280;65062;48.446;8.834;2023-04-01T03:35:10;96277.50;;;6.61;80.73
72336;BME280;65062;48.446;8.834;2023-04-01T03:38:11;96279.72;;;6.64;80.88
72336;BME280;65062;48.446;8.834;2023-04-01T03:41:13;96281.72;;;6.62;81.49
72336;BME280;65062;48.446;8.834;2023-04-01T03:44:14;96280.56;;;6.71;80.50
72336;BME280;65062;48.446;8.834;2023-04-01T03:47:14;96259.69;;;6.58;81.38
72336;BME280;65062;48.446;8.834;2023-04-01T03:50:15;96264.09;;;6.57;81.95
72336;BME280;65062;48.446;8.834;2023-04-01T03:53:15;96259.88;;;6.56;81.67
72336;BME280;65062;48.446;8.834;2023-04-01T03:56:16;96249.66;;;6.48;82.90
72336;BME280;65062;48.446;8.834;2023-04-01T03:59:16;96247.22;;;6.47;84.32
72336;BME280;65062;48.446;8.834;2023-04-01T04:02:16;96251.09;;;6.29;85.46
72336;BME280;65062;48.446;8.834;2023-04-01T04:05:17;96246.88;;;6.22;85.88
72336;BME280;65062;48.446;8.834;2023-04-01T04:08:17;96247.22;;;6.47;83.88
72336;BME280;65062;48.446;8.834;2023-04-01T04:11:22;96243.22;;;6.44;83.43
72336;BME280;65062;48.446;8.834;2023-04-01T04:14:23;96247.41;;;6.45;83.37
72336;BME280;65062;48.446;8.834;2023-04-01T04:17:23;96257.22;;;6.77;80.99
72336;BME280;65062;48.446;8.834;2023-04-01T04:20:24;96245.16;;;6.70;81.52
72336;BME280;65062;48.446;8.834;2023-04-01T04:23:24;96237.81;;;6.73;80.62
72336;BME280;65062;48.446;8.834;2023-04-01T04:26:26;96240.34;;;6.67;81.53
72336;BME280;65062;48.446;8.834;2023-04-01T04:29:26;96244.81;;;6.45;82.26
72336;BME280;65062;48.446;8.834;2023-04-01T04:32:26;96238.59;;;6.39;84.19
72336;BME280;65062;48.446;8.834;2023-04-01T04:35:27;96247.47;;;6.24;84.20
72336;BME280;65062;48.446;8.834;2023-04-01T04:38:28;96248.41;;;6.16;84.32
72336;BME280;65062;48.446;8.834;2023-04-01T04:41:28;96243.97;;;6.38;83.09
72336;BME280;65062;48.446;8.834;2023-04-01T04:44:29;96245.38;;;6.40;82.47
72336;BME280;65062;48.446;8.834;2023-04-01T04:47:29;96245.91;;;6.57;81.82
72336;BME280;65062;48.446;8.834;2023-04-01T04:50:29;96246.38;;;6.74;81.06
72336;BME280;65062;48.446;8.834;2023-04-01T04:53:30;96249.16;;;6.66;81.87
72336;BME280;65062;48.446;8.834;2023-04-01T04:56:31;96253.91;;;6.96;79.54
72336;BME280;65062;48.446;8.834;2023-04-01T04:59:31;96253.19;;;7.09;78.65
72336;BME280;65062;48.446;8.834;2023-04-01T05:02:32;96245.44;;;7.22;77.72
72336;BME280;65062;48.446;8.834;2023-04-01T05:05:32;96243.59;;;7.22;77.27
72336;BME280;65062;48.446;8.834;2023-04-01T05:08:33;96252.28;;;7.36;77.04
72336;BME280;65062;48.446;8.834;2023-04-01T05:11:34;96253.09;;;7.43;76.12
72336;BME280;65062;48.446;8.834;2023-04-01T05:14:35;96248.84;;;7.29;77.96
72336;BME280;65062;48.446;8.834;2023-04-01T05:17:35;96247.44;;;7.26;79.77
72336;BME280;65062;48.446;8.834;2023-04-01T05:20:36;96246.19;;;7.16;79.08
72336;BME280;65062;48.446;8.834;2023-04-01T05:23:36;96241.84;;;7.29;78.35
72336;BME280;65062;48.446;8.834;2023-04-01T05:26:37;96229.22;;;7.26;77.91
72336;BME280;65062;48.446;8.834;2023-04-01T05:29:37;96234.28;;;7.41;77.59
72336;BME280;65062;48.446;8.834;2023-04-01T05:32:38;96243.94;;;7.60;75.63
72336;BME280;65062;48.446;8.834;2023-04-01T05:35:39;96230.94;;;7.73;74.92
72336;BME280;65062;48.446;8.834;2023-04-01T05:38:40;96235.75;;;7.76;74.12
72336;BME280;65062;48.446;8.834;2023-04-01T05:41:42;96228.13;;;7.74;75.54
72336;BME280;65062;48.446;8.834;2023-04-01T05:44:42;96230.31;;;7.71;76.08
72336;BME280;65062;48.446;8.834;2023-04-01T05:47:43;96225.34;;;7.76;74.00
72336;BME280;65062;48.446;8.834;2023-04-01T05:50:43;96217.13;;;7.79;74.47
72336;BME280;65062;48.446;8.834;2023-04-01T05:53:43;96222.53;;;7.77;74.82
72336;BME280;65062;48.446;8.834;2023-04-01T05:56:44;96216.72;;;7.82;74.53
72336;BME280;65062;48.446;8.834;2023-04-01T05:59:44;96209.72;;;7.76;74.74
72336;BME280;65062;48.446;8.834;2023-04-01T06:02:45;96214.91;;;7.76;76.34
72336;BME280;65062;48.446;8.834;2023-04-01T06:05:46;96211.50;;;7.69;76.70
72336;BME280;65062;48.446;8.834;2023-04-01T06:08:46;96201.28;;;7.74;76.31
72336;BME280;65062;48.446;8.834;2023-04-01T06:18:48;96211.31;;;7.90;76.07
72336;BME280;65062;48.446;8.834;2023-04-01T06:22:02;96201.31;;;8.06;74.86
72336;BME280;65062;48.446;8.834;2023-04-01T06:32:00;96210.34;;;8.23;75.82
72336;BME280;65062;48.446;8.834;2023-04-01T06:38:25;96201.09;;;8.40;74.31
72336;BME280;65062;48.446;8.834;2023-04-01T06:42:04;96205.13;;;8.30;75.22
72336;BME280;65062;48.446;8.834;2023-04-01T06:52:02;96198.50;;;8.40;76.19
72336;BME280;65062;48.446;8.834;2023-04-01T07:02:45;96183.63;;;8.54;75.10
72336;BME280;65062;48.446;8.834;2023-04-01T07:05:19;96189.03;;;8.59;76.12
72336;BME280;65062;48.446;8.834;2023-04-01T07:08:25;96191.00;;;8.70;77.04
72336;BME280;65062;48.446;8.834;2023-04-01T07:11:31;96188.56;;;8.75;74.58
72336;BME280;65062;48.446;8.834;2023-04-01T07:14:34;96189.75;;;8.86;75.52
72336;BME280;65062;48.446;8.834;2023-04-01T07:17:38;96186.50;;;8.97;74.49
72336;BME280;65062;48.446;8.834;2023-04-01T07:20:39;96190.94;;;8.90;74.73
72336;BME280;65062;48.446;8.834;2023-04-01T07:23:42;96202.41;;;8.82;73.57
72336;BME280;65062;48.446;8.834;2023-04-01T07:26:45;96199.81;;;8.82;74.06
72336;BME280;65062;48.446;8.834;2023-04-01T07:29:45;96191.97;;;8.82;74.02
72336;BME280;65062;48.446;8.834;2023-04-01T07:33:02;96194.41;;;8.77;73.17
72336;BME280;65062;48.446;8.834;2023-04-01T07:49:16;96215.41;;;8.89;74.93
72336;BME280;65062;48.446;8.834;2023-04-01T07:52:30;96217.03;;;8.90;73.98
72336;BME280;65062;48.446;8.834;2023-04-01T08:05:22;96230.06;;;8.96;74.12
72336;BME280;65062;48.446;8.834;2023-04-01T08:09:08;96229.69;;;8.80;74.96
72336;BME280;65062;48.446;8.834;2023-04-01T08:12:13;96227.47;;;8.90;75.23
72336;BME280;65062;48.446;8.834;2023-04-01T08:15:26;96232.25;;;8.99;75.45
72336;BME280;65062;48.446;8.834;2023-04-01T08:18:32;96230.81;;;9.10;74.23
72336;BME280;65062;48.446;8.834;2023-04-01T08:21:45;96235.00;;;9.17;74.39
72336;BME280;65062;48.446;8.834;2023-04-01T08:24:49;96232.59;;;9.16;73.80
72336;BME280;65062;48.446;8.834;2023-04-01T08:27:59;96239.63;;;9.15;73.54
72336;BME280;65062;48.446;8.834;2023-04-01T08:31:04;96242.47;;;9.01;73.58
72336;BME280;65062;48.446;8.834;2023-04-01T08:34:15;96241.91;;;8.92;74.76
72336;BME280;65062;48.446;8.834;2023-04-01T08:37:21;96249.75;;;8.92;74.93
72336;BME280;65062;48.446;8.834;2023-04-01T08:47:18;96253.53;;;8.96;74.66
72336;BME280;65062;48.446;8.834;2023-04-01T08:51:20;96239.50;;;8.91;74.92
72336;BME280;65062;48.446;8.834;2023-04-01T09:15:20;96272.19;;;9.50;75.88
72336;BME280;65062;48.446;8.834;2023-04-01T09:35:48;96296.81;;;9.23;75.96
72336;BME280;65062;48.446;8.834;2023-04-01T09:38:57;96293.66;;;9.02;76.63
72336;BME280;65062;48.446;8.834;2023-04-01T09:49:05;96307.50;;;9.09;79.18
72336;BME280;65062;48.446;8.834;2023-04-01T09:52:24;96305.91;;;9.01;79.54
72336;BME280;65062;48.446;8.834;2023-04-01T10:42:14;96315.22;;;9.41;77.56
72336;BME280;65062;48.446;8.834;2023-04-01T10:52:39;96318.03;;;9.46;76.94
72336;BME280;65062;48.446;8.834;2023-04-01T10:59:21;96315.63;;;9.82;77.72
72336;BME280;65062;48.446;8.834;2023-04-01T11:23:29;96312.09;;;9.26;78.55
72336;BME280;65062;48.446;8.834;2023-04-01T11:26:39;96324.06;;;9.40;77.05
72336;BME280;65062;48.446;8.834;2023-04-01T11:30:19;96314.50;;;9.72;75.98
72336;BME280;65062;48.446;8.834;2023-04-01T11:33:30;96321.09;;;9.81;76.38
72336;BME280;65062;48.446;8.834;2023-04-01T11:39:44;96321.88;;;9.81;78.57
72336;BME280;65062;48.446;8.834;2023-04-01T11:46:12;96325.59;;;10.11;75.78
72336;BME280;65062;48.446;8.834;2023-04-01T11:49:41;96344.28;;;10.02;77.69
72336;BME280;65062;48.446;8.834;2023-04-01T11:56:51;96345.78;;;9.34;77.59
72336;BME280;65062;48.446;8.834;2023-04-01T12:03:29;96351.22;;;9.33;79.58
72336;BME280;65062;48.446;8.834;2023-04-01T12:10:05;96360.88;;;9.32;79.44
72336;BME280;65062;48.446;8.834;2023-04-01T12:16:58;96355.84;;;9.18;79.44
72336;BME280;65062;48.446;8.834;2023-04-01T12:23:51;96363.88;;;9.29;78.31
72336;BME280;65062;48.446;8.834;2023-04-01T12:41:24;96366.13;;;10.51;74.07
72336;BME280;65062;48.446;8.834;2023-04-01T12:48:14;96367.16;;;11.60;67.59
72336;BME280;65062;48.446;8.834;2023-04-01T13:07:59;96357.94;;;12.76;63.12
72336;BME280;65062;48.446;8.834;2023-04-01T13:14:38;96366.72;;;11.99;65.97
72336;BME280;65062;48.446;8.834;2023-04-01T13:21:28;96359.63;;;11.70;65.63
72336;BME280;65062;48.446;8.834;2023-04-01T13:27:44;96400.69;;;10.91;69.91
72336;BME280;65062;48.446;8.834;2023-04-01T13:31:02;96366.72;;;10.53;71.88
72336;BME280;65062;48.446;8.834;2023-04-01T13:41:15;96367.09;;;11.06;68.02
72336;BME280;65062;48.446;8.834;2023-04-01T13:54:58;96386.28;;;11.43;67.12
72336;BME280;65062;48.446;8.834;2023-04-01T14:02:39;96384.25;;;11.02;67.50
72336;BME280;65062;48.446;8.834;2023-04-01T14:25:31;96382.25;;;10.17;72.72
72336;BME280;65062;48.446;8.834;2023-04-01T14:38:28;96378.97;;;9.84;73.06
72336;BME280;65062;48.446;8.834;2023-04-01T14:52:13;96375.78;;;9.76;75.18
72336;BME280;65062;48.446;8.834;2023-04-01T14:58:49;96381.16;;;10.31;77.19
72336;BME280;65062;48.446;8.834;2023-04-01T15:09:17;96383.13;;;10.67;72.81
72336;BME280;65062;48.446;8.834;2023-04-01T15:19:04;96398.00;;;10.73;71.76
72336;BME280;65062;48.446;8.834;2023-04-01T15:22:19;96400.44;;;10.68;70.67
72336;BME280;65062;48.446;8.834;2023-04-01T15:28:38;96409.31;;;10.29;70.30
72336;BME280;65062;48.446;8.834;2023-04-01T15:31:52;96415.16;;;10.31;70.42
72336;BME280;65062;48.446;8.834;2023-04-01T15:58:03;96419.28;;;10.14;68.14
72336;BME280;65062;48.446;8.834;2023-04-01T16:05:19;96416.09;;;10.43;70.56
72336;BME280;65062;48.446;8.834;2023-04-01T16:18:13;96425.47;;;10.26;68.67
72336;BME280;65062;48.446;8.834;2023-04-01T16:24:38;96420.66;;;10.23;70.38
72336;BME280;65062;48.446;8.834;2023-04-01T16:27:51;96423.72;;;10.07;70.23
72336;BME280;65062;48.446;8.834;2023-04-01T16:31:23;96419.88;;;10.03;71.34
72336;BME280;65062;48.446;8.834;2023-04-01T16:34:43;96419.88;;;10.03;71.96
72336;BME280;65062;48.446;8.834;2023-04-01T16:37:49;96426.13;;;10.02;70.77
72336;BME280;65062;48.446;8.834;2023-04-01T16:44:25;96430.97;;;9.99;71.98
72336;BME280;65062;48.446;8.834;2023-04-01T16:48:05;96425.34;;;10.08;71.20
72336;BME280;65062;48.446;8.834;2023-04-01T16:51:09;96426.50;;;10.06;70.95
72336;BME280;65062;48.446;8.834;2023-04-01T16:57:50;96429.97;;;10.06;70.19
72336;BME280;65062;48.446;8.834;2023-04-01T17:01:06;96431.34;;;10.09;71.51
72336;BME280;65062;48.446;8.834;2023-04-01T17:04:19;96427.13;;;10.14;70.64
72336;BME280;65062;48.446;8.834;2023-04-01T17:20:43;96433.78;;;9.97;69.51
72336;BME280;65062;48.446;8.834;2023-04-01T17:24:03;96435.63;;;9.90;68.85
72336;BME280;65062;48.446;8.834;2023-04-01T17:37:21;96456.97;;;9.68;69.64
72336;BME280;65062;48.446;8.834;2023-04-01T17:41:03;96455.63;;;9.59;71.21
72336;BME280;65062;48.446;8.834;2023-04-01T17:47:29;96479.53;;;9.56;70.49
72336;BME280;65062;48.446;8.834;2023-04-01T17:54:11;96481.56;;;9.28;72.74
72336;BME280;65062;48.446;8.834;2023-04-01T18:10:54;96489.78;;;9.51;69.28
72336;BME280;65062;48.446;8.834;2023-04-01T18:24:28;96526.94;;;9.40;70.41
72336;BME280;65062;48.446;8.834;2023-04-01T18:27:40;96529.97;;;9.37;69.73
72336;BME280;65062;48.446;8.834;2023-04-01T18:30:51;96531.56;;;9.25;71.11
72336;BME280;65062;48.446;8.834;2023-04-01T18:36:58;96545.41;;;9.12;74.63
72336;BME280;65062;48.446;8.834;2023-04-01T18:40:11;96558.25;;;9.01;75.61
72336;BME280;65062;48.446;8.834;2023-04-01T18:46:45;96559.03;;;8.88;76.60
72336;BME280;65062;48.446;8.834;2023-04-01T18:49:55;96558.41;;;8.86;76.95
72336;BME280;65062;48.446;8.834;2023-04-01T18:53:22;96568.97;;;8.65;78.37
72336;BME280;65062;48.446;8.834;2023-04-01T18:56:26;96564.97;;;8.63;79.49
72336;BME280;65062;48.446;8.834;2023-04-01T19:02:57;96566.25;;;8.05;81.08
72336;BME280;65062;48.446;8.834;2023-04-01T19:06:08;96572.16;;;7.86;82.43
72336;BME280;65062;48.446;8.834;2023-04-01T19:09:17;96574.13;;;7.77;82.84
72336;BME280;65062;48.446;8.834;2023-04-01T19:12:25;96577.13;;;7.53;83.42
72336;BME280;65062;48.446;8.834;2023-04-01T19:19:05;96575.59;;;7.10;85.86
72336;BME280;65062;48.446;8.834;2023-04-01T19:22:37;96586.53;;;7.06;85.79
72336;BME280;65062;48.446;8.834;2023-04-01T19:26:00;96582.75;;;7.08;86.64
72336;BME280;65062;48.446;8.834;2023-04-01T19:36:16;96579.53;;;7.27;87.11
72336;BME280;65062;48.446;8.834;2023-04-01T19:39:44;96576.25;;;7.19;87.44
72336;BME280;65062;48.446;8.834;2023-04-01T19:49:27;96571.50;;;6.66;88.67
72336;BME280;65062;48.446;8.834;2023-04-01T19:52:40;96564.72;;;6.50;90.02
72336;BME280;65062;48.446;8.834;2023-04-01T19:56:11;96572.31;;;6.52;89.75
72336;BME280;65062;48.446;8.834;2023-04-01T19:59:33;96584.81;;;6.41;89.91
72336;BME280;65062;48.446;8.834;2023-04-01T20:02:43;96584.94;;;6.33;90.01
72336;BME280;65062;48.446;8.834;2023-04-01T20:06:00;96587.53;;;6.19;90.74
72336;BME280;65062;48.446;8.834;2023-04-01T20:16:04;96590.16;;;6.55;86.84
72336;BME280;65062;48.446;8.834;2023-04-01T20:19:07;96588.66;;;6.60;87.26
72336;BME280;65062;48.446;8.834;2023-04-01T20:25:41;96595.88;;;6.79;84.30
72336;BME280;65062;48.446;8.834;2023-04-01T20:29:12;96606.69;;;6.83;82.36
72336;BME280;65062;48.446;8.834;2023-04-01T20:35:45;96610.50;;;6.66;83.75
72336;BME280;65062;48.446;8.834;2023-04-01T20:52:04;96635.97;;;6.12;87.24
72336;BME280;65062;48.446;8.834;2023-04-01T20:55:30;96649.72;;;6.20;87.60
72336;BME280;65062;48.446;8.834;2023-04-01T21:09:28;96687.31;;;6.83;86.87
72336;BME280;65062;48.446;8.834;2023-04-01T21:22:06;96682.47;;;6.80;88.03
72336;BME280;65062;48.446;8.834;2023-04-01T21:31:59;96684.34;;;6.86;88.67
72336;BME280;65062;48.446;8.834;2023-04-01T21:41:56;96687.13;;;6.84;88.20
72336;BME280;65062;48.446;8.834;2023-04-01T21:51:34;96691.81;;;6.74;84.90
72336;BME280;65062;48.446;8.834;2023-04-01T21:58:32;96705.25;;;6.78;83.38
72336;BME280;65062;48.446;8.834;2023-04-01T22:01:29;96700.31;;;6.68;83.42
72336;BME280;65062;48.446;8.834;2023-04-01T22:04:58;96718.88;;;6.65;83.03
72336;BME280;65062;48.446;8.834;2023-04-01T22:11:57;96709.66;;;6.33;86.02
72336;BME280;65062;48.446;8.834;2023-04-01T22:21:58;96716.28;;;6.51;84.60
72336;BME280;65062;48.446;8.834;2023-04-01T22:25:09;96730.31;;;6.27;85.14
72336;BME280;65062;48.446;8.834;2023-04-01T22:28:21;96728.00;;;6.17;86.80
72336;BME280;65062;48.446;8.834;2023-04-01T22:54:53;96736.22;;;6.21;88.78
72336;BME280;65062;48.446;8.834;2023-04-01T22:58:03;96736.72;;;6.02;88.94
72336;BME280;65062;48.446;8.834;2023-04-01T23:01:12;96735.81;;;5.95;89.47
72336;BME280;65062;48.446;8.834;2023-04-01T23:04:16;96745.81;;;5.83;89.75
72336;BME280;65062;48.446;8.834;2023-04-01T23:10:42;96743.59;;;5.95;88.99
72336;BME280;65062;48.446;8.834;2023-04-01T23:13:49;96740.88;;;5.88;87.59
72336;BME280;65062;48.446;8.834;2023-04-01T23:20:41;96747.72;;;5.59;88.85
72336;BME280;65062;48.446;8.834;2023-04-01T23:24:00;96743.66;;;5.64;88.73
72336;BME280;65062;48.446;8.834;2023-04-01T23:30:04;96756.50;;;5.80;88.75
72336;BME280;65062;48.446;8.834;2023-04-01T23:36:20;96764.97;;;6.19;85.83
72336;BME280;65062;48.446;8.834;2023-04-01T23:42:32;96766.19;;;6.09;85.76
72336;BME280;65062;48.446;8.834;2023-04-01T23:45:41;96768.44;;;6.12;85.69
72336;BME280;65062;48.446;8.834;2023-04-01T23:48:45;96768.41;;;6.20;84.97
72336;BME280;65062;48.446;8.834;2023-04-01T23:51:57;96775.84;;;6.23;84.96
72336;BME280;65062;48.446;8.834;2023-04-01T23:55:03;96769.63;;;6.09;85.73
